SKBQ/BAQ METAR and TAF weather

Enter ICAO airport designator
Station Type Date Time Source
SKBQ METAR 2020/10/22 04:00 UTC NOAA

SKBQ 220400Z 36003KT 9999 FEW015 28/25 A2984 NOSIG


Station Type Date Time Source
SKBQ Decoded METAR 2020/10/22 04:00 UTC NOAA

Barranquilla / Ernestocortissoz, Colombia (SKBQ) 10-53N 074-47W 30M
Oct 22, 2020 - 12:00 AM EDT / 2020.10.22 0400 UTC
Wind: from the N (360 degrees) at 3 MPH (3 KT):0
Visibility: greater than 7 mile(s):0
Sky conditions: mostly clear
Temperature: 82 F (28 C)
Dew Point: 77 F (25 C)
Relative Humidity: 83%
Pressure (altimeter): 29.84 in. Hg (1010 hPa)
ob: SKBQ 220400Z 36003KT 9999 FEW015 28/25 A2984 NOSIG
cycle: 4

Station Type Date Time Source
SKBQ TAF 2020/10/21 18:40 UTC NOAA

TAF SKBQ 211630Z 2118/2218 VRB03KT 9999 SCT015
TEMPO 2119/2122 DZRA SCT015TCU
TEMPO 2210/2213 4000 BR BKN010 TX32/2119Z TN25/2210Z

Example: see airport list